»·PEaware :: MET4155 KPDX-KSLC

MET4155 :: KPDX-KSLC

FLIGHT INFORMATION

Flight Status: Arrived
Operator:
MetroAir (website)
More flights by this operator :: More flights under this callsign
Pilot: Colin L. (27704)
Aircraft: EMBRAER ERJ-145
(E145)
More flights by this aircraft type
Origin: KPDX Portland Intl
United States
Destination: KSLC Salt Lake City Intl
United States
More flights between these airports :: More routes between these airports
Route: WHAMY4 IMB J15 BOI BYI SKEES5
File this flight plan on PilotEdge
Remarks: RMK / SIMBRIEF
Altitude:
(Current/Filed)
35,000ft
Speed:
(Current/Filed)
453kts
Departed: 02-Jul-20 03:06 PM
Arrived: 02-Jul-20 04:39 PM
Distance/Time
Traveled:
546nm/1:33
Distance/Time
To Go:
Arrived

Flight Plot

Page will automatically refresh every two minutes.


Map Options




Map Legend


Flown Route
Filed Route
Departure Airport
Arrival Airport
Navaid (VOR, NDB)
Fix

Horizontal Profiles

Position Reports

Time Latitude Longitude Heading Altitude Ground
Speed
02-Jul-20 14:46 45.591538 -122.597147 87 23ft 0kts
02-Jul-20 14:47 45.591538 -122.597147 87 23ft 0kts
02-Jul-20 14:48 45.591538 -122.597147 87 23ft 0kts
02-Jul-20 14:49 45.591538 -122.597147 87 23ft 0kts
02-Jul-20 14:50 45.591538 -122.597147 87 23ft 0kts
02-Jul-20 14:51 45.591538 -122.597147 87 23ft 0kts
02-Jul-20 14:52 45.591538 -122.597147 87 22ft 0kts
02-Jul-20 14:53 45.591538 -122.597147 87 22ft 0kts
02-Jul-20 14:55 45.591538 -122.597147 87 22ft 0kts
02-Jul-20 14:56 45.591538 -122.597147 87 22ft 0kts
02-Jul-20 14:57 45.591538 -122.597147 87 22ft 0kts
02-Jul-20 14:58 45.591538 -122.597147 87 22ft 0kts
02-Jul-20 14:59 45.591512 -122.597382 59 22ft 2kts
02-Jul-20 15:00 45.591242 -122.597553 349 22ft 0kts
02-Jul-20 15:01 45.591243 -122.597554 349 22ft 0kts
02-Jul-20 15:02 45.591243 -122.597554 349 22ft 0kts
02-Jul-20 15:03 45.592329 -122.597581 5 24ft 4kts
02-Jul-20 15:04 45.594160 -122.597894 33 26ft 8kts
02-Jul-20 15:05 45.594237 -122.597802 40 26ft 0kts
02-Jul-20 15:06 45.590984 -122.585850 119 23ft 130kts
02-Jul-20 15:07 45.570761 -122.512914 99 1827ft 239kts
02-Jul-20 15:08 45.558242 -122.421100 101 4315ft 241kts
02-Jul-20 15:09 45.540848 -122.330369 124 6786ft 231kts
02-Jul-20 15:09 45.495118 -122.282158 148 8996ft 274kts
02-Jul-20 15:11 45.420505 -122.189004 141 12023ft 339kts
02-Jul-20 15:11 45.358094 -122.109775 141 14162ft 381kts
02-Jul-20 15:12 45.275926 -122.005797 141 16744ft 409kts
02-Jul-20 15:14 45.216667 -121.831494 111 19745ft 437kts
02-Jul-20 15:14 45.182202 -121.697371 111 21811ft 423kts
02-Jul-20 15:16 45.136662 -121.521322 111 24307ft 394kts
02-Jul-20 15:16 45.105422 -121.401353 112 25985ft 402kts
02-Jul-20 15:17 45.064546 -121.245301 112 28048ft 445kts
02-Jul-20 15:18 45.019422 -121.074141 112 30094ft 484kts
02-Jul-20 15:19 44.972023 -120.895686 112 32082ft 486kts
02-Jul-20 15:20 44.924474 -120.718061 112 34064ft 483kts
02-Jul-20 15:21 44.877986 -120.545630 112 35050ft 462kts
02-Jul-20 15:22 44.831687 -120.375142 112 35067ft 470kts
02-Jul-20 15:23 44.784375 -120.202120 113 35063ft 477kts
02-Jul-20 15:24 44.736122 -120.026927 113 35073ft 483kts
02-Jul-20 15:25 44.687135 -119.850371 113 35075ft 488kts
02-Jul-20 15:26 44.636973 -119.672367 114 35077ft 492kts
02-Jul-20 15:27 44.586133 -119.498120 114 35069ft 469kts
02-Jul-20 15:28 44.536980 -119.330869 115 35073ft 463kts
02-Jul-20 15:29 44.487904 -119.164989 115 35076ft 466kts
02-Jul-20 15:30 44.437077 -118.994223 115 35078ft 484kts
02-Jul-20 15:31 44.384864 -118.819921 116 35065ft 477kts
02-Jul-20 15:32 44.334620 -118.653628 117 35075ft 457kts
02-Jul-20 15:33 44.285295 -118.491267 117 35075ft 451kts
02-Jul-20 15:34 44.236079 -118.330278 118 35077ft 456kts
02-Jul-20 15:35 44.185500 -118.165877 117 35067ft 468kts
02-Jul-20 15:36 44.133512 -117.997964 117 35065ft 478kts
02-Jul-20 15:37 44.080233 -117.827040 117 35067ft 487kts
02-Jul-20 15:38 44.026418 -117.655445 117 35073ft 481kts
02-Jul-20 15:39 43.973010 -117.486280 117 35072ft 476kts
02-Jul-20 15:40 43.919855 -117.319018 118 35068ft 472kts
02-Jul-20 15:41 43.867026 -117.153846 118 35073ft 468kts
02-Jul-20 15:42 43.814322 -116.989792 121 35075ft 465kts
02-Jul-20 15:43 43.761278 -116.826245 123 35064ft 468kts
02-Jul-20 15:44 43.707610 -116.661600 123 35063ft 474kts
02-Jul-20 15:45 43.653075 -116.495269 122 35064ft 479kts
02-Jul-20 15:46 43.597677 -116.327353 123 35056ft 483kts
02-Jul-20 15:47 43.542335 -116.158299 130 35032ft 476kts
02-Jul-20 15:48 43.475705 -116.000687 128 35055ft 479kts
02-Jul-20 15:49 43.410737 -115.840413 128 35051ft 481kts
02-Jul-20 15:50 43.345548 -115.680456 128 35046ft 480kts
02-Jul-20 15:51 43.280238 -115.521091 128 35049ft 480kts
02-Jul-20 15:52 43.214658 -115.361938 128 35050ft 480kts
02-Jul-20 15:53 43.148759 -115.202921 129 35039ft 478kts
02-Jul-20 15:54 43.083128 -115.045355 129 35063ft 476kts
02-Jul-20 15:55 43.017508 -114.888800 129 35087ft 475kts
02-Jul-20 15:56 42.951547 -114.732219 128 35088ft 475kts
02-Jul-20 15:57 42.885591 -114.576466 127 35096ft 475kts
02-Jul-20 15:58 42.820405 -114.423227 127 35092ft 459kts
02-Jul-20 15:59 42.757369 -114.275882 129 35088ft 443kts
02-Jul-20 16:00 42.695978 -114.133130 129 35085ft 437kts
02-Jul-20 16:01 42.634409 -113.990676 129 35085ft 437kts
02-Jul-20 16:02 42.569931 -113.852523 143 35088ft 420kts
02-Jul-20 16:03 42.487528 -113.741429 144 35084ft 420kts
02-Jul-20 16:04 42.404349 -113.630266 144 35087ft 420kts
02-Jul-20 16:05 42.322765 -113.521541 145 33819ft 395kts
02-Jul-20 16:06 42.247364 -113.421610 144 31382ft 368kts
02-Jul-20 16:07 42.176714 -113.328259 144 28875ft 348kts
02-Jul-20 16:08 42.109219 -113.239337 144 26321ft 332kts
02-Jul-20 16:09 42.044655 -113.154538 143 23786ft 320kts
02-Jul-20 16:10 41.982158 -113.072687 142 21316ft 307kts
02-Jul-20 16:11 41.923974 -112.996664 141 19470ft 281kts
02-Jul-20 16:12 41.869651 -112.925906 141 17649ft 266kts
02-Jul-20 16:13 41.816642 -112.857071 140 16093ft 272kts
02-Jul-20 16:14 41.762452 -112.786750 141 16065ft 270kts
02-Jul-20 16:15 41.708753 -112.717325 141 16065ft 267kts
02-Jul-20 16:16 41.655634 -112.648816 141 16065ft 264kts
02-Jul-20 16:17 41.602751 -112.580771 141 16065ft 262kts
02-Jul-20 16:18 41.550172 -112.513305 141 16074ft 272kts
02-Jul-20 16:19 41.481676 -112.443637 150 15595ft 332kts
02-Jul-20 16:20 41.400580 -112.385533 154 14113ft 333kts
02-Jul-20 16:21 41.319382 -112.328079 155 13054ft 320kts
02-Jul-20 16:22 41.240516 -112.272480 154 13064ft 342kts
02-Jul-20 16:23 41.153900 -112.206775 152 12363ft 372kts
02-Jul-20 16:24 41.062721 -112.144812 170 12152ft 364kts
02-Jul-20 16:25 40.966197 -112.123523 172 11449ft 331kts
02-Jul-20 16:26 40.881450 -112.107158 178 11046ft 280kts
02-Jul-20 16:27 40.810118 -112.097664 175 11025ft 239kts
02-Jul-20 16:28 40.748430 -112.086359 175 10761ft 225kts
02-Jul-20 16:29 40.680333 -112.073908 175 9836ft 266kts
02-Jul-20 16:30 40.607679 -112.060706 175 9020ft 252kts
02-Jul-20 16:31 40.542543 -112.046952 158 9022ft 236kts
02-Jul-20 16:32 40.549626 -111.973658 30 8192ft 265kts
02-Jul-20 16:33 40.611199 -111.967736 337 8279ft 210kts
02-Jul-20 16:34 40.660527 -111.981261 348 7183ft 158kts
02-Jul-20 16:35 40.702459 -111.986473 351 5549ft 147kts
02-Jul-20 16:36 40.741653 -111.991484 352 4813ft 142kts
02-Jul-20 16:37 40.777866 -111.995747 354 4234ft 120kts
02-Jul-20 16:38 40.791406 -111.995798 55 4222ft 0kts
02-Jul-20 16:39 40.791244 -111.994908 143 4222ft 9kts
02-Jul-20 16:40 40.791113 -111.989255 134 4222ft 20kts
02-Jul-20 16:41 40.789927 -111.981308 78 4222ft 24kts
02-Jul-20 16:42 40.786051 -111.976853 175 4223ft 18kts

Navigation Log

Ident Type
Flight plan parsing failed, navigation log unavailable